Time;durP1;ratioP1;P1;durP2;ratioP2;P2;SDS_P1;SDS_P2;PMS_P1;PMS_P2;Temp;Humidity;BMP_temperature;BMP_pressure;BME280_temperature;BME280_humidity;BME280_pressure;Samples;Min_cycle;Max_cycle;Signal;HPM_P1;HPM_P2
2021/05/17 00:00:09;;;;;;;4.93;1.00;;;;;;;9.92;100.00;96398.13;4968990;28;20053;-76
2021/05/17 00:02:36;;;;;;;3.70;0.95;;;;;;;9.89;100.00;96404.22;4986941;28;20177;-79
2021/05/17 00:05:04;;;;;;;4.18;1.23;;;;;;;9.86;100.00;96402.19;4969852;28;20042;-77
2021/05/17 00:07:30;;;;;;;3.00;1.10;;;;;;;9.82;100.00;96401.28;4982973;28;20053;-77
2021/05/17 00:09:57;;;;;;;4.25;1.10;;;;;;;9.81;100.00;96397.81;5007044;28;20050;-78
2021/05/17 00:12:24;;;;;;;2.92;1.08;;;;;;;9.77;100.00;96409.63;4989149;28;20046;-78
2021/05/17 00:14:51;;;;;;;2.97;1.10;;;;;;;9.74;100.00;96400.28;5006829;28;20061;-77
2021/05/17 00:17:18;;;;;;;3.30;0.90;;;;;;;9.77;100.00;96399.63;5007186;28;20285;-76
2021/05/17 00:19:44;;;;;;;3.65;1.00;;;;;;;9.79;100.00;96408.16;5006028;28;20041;-76
2021/05/17 00:22:11;;;;;;;1.67;0.95;;;;;;;9.79;100.00;96412.78;5006863;28;20061;-75
2021/05/17 00:24:38;;;;;;;1.17;0.70;;;;;;;9.78;100.00;96411.22;4987744;28;20056;-76
2021/05/17 00:27:05;;;;;;;4.85;1.00;;;;;;;9.76;100.00;96418.84;4988558;28;20100;-76
2021/05/17 00:29:32;;;;;;;3.80;1.17;;;;;;;9.77;100.00;96417.75;4972759;28;20137;-76
2021/05/17 00:31:59;;;;;;;3.85;1.33;;;;;;;9.78;100.00;96413.94;4990142;28;20041;-76
2021/05/17 00:34:26;;;;;;;4.53;1.13;;;;;;;9.78;100.00;96420.09;4991947;28;20057;-76
2021/05/17 00:36:54;;;;;;;16.63;1.30;;;;;;;9.80;100.00;96414.38;4988849;28;20042;-77
2021/05/17 00:39:21;;;;;;;4.47;1.35;;;;;;;9.68;100.00;96412.44;5029869;23;20060;-78
2021/05/17 00:41:50;;;;;;;3.17;1.42;;;;;;;9.58;100.00;96412.91;5037466;28;20043;-76
2021/05/17 00:44:18;;;;;;;7.63;1.42;;;;;;;9.53;100.00;96421.22;5016120;28;20050;-75
2021/05/17 00:46:45;;;;;;;6.45;1.20;;;;;;;9.49;100.00;96424.97;5017096;28;20493;-77
2021/05/17 00:49:12;;;;;;;3.65;1.40;;;;;;;9.46;100.00;96410.22;5013612;28;20292;-76
2021/05/17 00:51:39;;;;;;;3.70;1.27;;;;;;;9.51;100.00;96414.59;5015432;28;20064;-77
2021/05/17 00:54:08;;;;;;;4.22;1.23;;;;;;;9.52;100.00;96422.38;4996229;28;20037;-77
2021/05/17 00:56:34;;;;;;;4.00;1.30;;;;;;;9.49;100.00;96428.44;5005177;28;20042;-78
2021/05/17 00:59:01;;;;;;;6.55;1.50;;;;;;;9.49;100.00;96428.44;5013296;28;20063;-76
2021/05/17 01:01:31;;;;;;;4.30;1.60;;;;;;;9.51;100.00;96431.59;5018986;28;20102;-78
2021/05/17 01:03:58;;;;;;;4.25;1.30;;;;;;;9.55;100.00;96429.03;4998876;28;20242;-77
2021/05/17 01:06:28;;;;;;;5.55;1.60;;;;;;;9.57;100.00;96429.47;4998470;28;20038;-77
2021/05/17 01:09:06;;;;;;;4.53;1.60;;;;;;;9.59;100.00;96428.00;5000743;28;20049;-76
2021/05/17 01:11:35;;;;;;;5.38;1.35;;;;;;;9.68;100.00;96438.72;5000076;28;20037;-77
2021/05/17 01:14:05;;;;;;;6.97;1.80;;;;;;;9.66;100.00;96427.41;5015656;28;20049;-77
2021/05/17 01:16:33;;;;;;;4.53;1.15;;;;;;;9.74;100.00;96431.94;5000732;28;20042;-76
2021/05/17 01:19:00;;;;;;;2.53;1.10;;;;;;;9.71;100.00;96419.88;5028654;28;20049;-75
2021/05/17 01:21:34;;;;;;;4.68;1.25;;;;;;;9.77;100.00;96423.94;5010763;28;20048;-77
2021/05/17 01:24:01;;;;;;;5.25;1.00;;;;;;;9.71;100.00;96417.19;4985133;28;20394;-77
2021/05/17 01:26:34;;;;;;;3.03;1.00;;;;;;;9.74;100.00;96410.31;5019439;28;20050;-76
2021/05/17 01:29:05;;;;;;;4.00;0.90;;;;;;;9.75;100.00;96412.69;5019380;28;20068;-77
2021/05/17 01:31:33;;;;;;;2.05;1.10;;;;;;;9.77;100.00;96428.56;5018243;28;20050;-78
2021/05/17 01:34:00;;;;;;;5.43;1.40;;;;;;;9.71;100.00;96428.00;5018402;28;20046;-77
2021/05/17 01:36:26;;;;;;;3.63;1.05;;;;;;;9.72;100.00;96429.56;5018222;28;20061;-76
2021/05/17 01:38:55;;;;;;;1.63;0.93;;;;;;;9.70;100.00;96422.94;5017500;28;20049;-76
2021/05/17 01:41:24;;;;;;;5.55;1.40;;;;;;;9.58;100.00;96423.72;5000210;28;20057;-75
2021/05/17 01:43:56;;;;;;;3.85;1.20;;;;;;;9.59;100.00;96428.00;5017140;28;20316;-77
2021/05/17 01:46:29;;;;;;;3.38;1.00;;;;;;;9.53;100.00;96420.44;5020650;28;20053;-76
2021/05/17 01:48:57;;;;;;;3.60;1.05;;;;;;;9.48;100.00;96434.16;4987610;28;20061;-78
2021/05/17 01:51:24;;;;;;;4.57;1.17;;;;;;;9.47;100.00;96436.09;5021479;28;20050;-76
2021/05/17 01:53:52;;;;;;;3.15;1.05;;;;;;;9.44;100.00;96433.28;5004184;28;20046;-77
2021/05/17 01:56:20;;;;;;;4.13;1.20;;;;;;;9.42;100.00;96424.72;4988796;28;20650;-76
2021/05/17 01:58:47;;;;;;;5.40;1.50;;;;;;;9.42;100.00;96436.31;5006974;28;20061;-76
2021/05/17 02:01:17;;;;;;;3.70;1.70;;;;;;;9.42;100.00;96433.59;4981044;28;20053;-76
2021/05/17 02:03:46;;;;;;;2.70;1.40;;;;;;;9.37;100.00;96428.41;4995842;28;20050;-78
2021/05/17 02:06:16;;;;;;;9.25;1.92;;;;;;;9.44;100.00;96444.88;4981472;28;20512;-77
2021/05/17 02:08:48;;;;;;;12.30;2.20;;;;;;;9.44;100.00;96441.38;4981511;28;20824;-77
2021/05/17 02:11:18;;;;;;;4.15;1.70;;;;;;;9.49;100.00;96441.97;4999628;28;20080;-77
2021/05/17 02:13:45;;;;;;;4.90;1.90;;;;;;;9.52;100.00;96448.59;4999574;28;20073;-76
2021/05/17 02:16:16;;;;;;;6.28;2.03;;;;;;;9.51;100.00;96436.19;4998531;28;20045;-80
2021/05/17 02:18:46;;;;;;;4.03;1.80;;;;;;;9.50;100.00;96437.34;5001727;28;20046;-74
2021/05/17 02:21:15;;;;;;;7.63;2.25;;;;;;;9.54;100.00;96420.13;5012727;28;20053;-76
2021/05/17 02:23:43;;;;;;;8.73;1.90;;;;;;;9.52;100.00;96433.19;5008836;28;20563;-77
2021/05/17 02:26:11;;;;;;;12.20;2.10;;;;;;;9.50;100.00;96434.66;4999176;28;20045;-77
2021/05/17 02:28:39;;;;;;;6.90;1.80;;;;;;;9.48;100.00;96426.88;4983165;28;20053;-77
2021/05/17 02:31:06;;;;;;;5.78;1.88;;;;;;;9.47;100.00;96421.81;4998163;28;20057;-77
2021/05/17 02:33:34;;;;;;;7.82;1.23;;;;;;;9.40;100.00;96430.44;4981151;28;20127;-76
2021/05/17 02:36:02;;;;;;;7.40;1.40;;;;;;;9.36;100.00;96424.97;4998456;28;20525;-78
2021/05/17 02:38:31;;;;;;;3.25;1.40;;;;;;;9.27;100.00;96431.56;5018311;28;20038;-77
2021/05/17 02:40:59;;;;;;;3.33;1.30;;;;;;;9.28;100.00;96446.66;5000823;28;20038;-79
2021/05/17 02:43:27;;;;;;;2.67;1.10;;;;;;;9.25;100.00;96452.72;5002010;28;20046;-78
2021/05/17 02:45:54;;;;;;;3.47;1.10;;;;;;;9.21;100.00;96451.81;5005594;28;20609;-77
2021/05/17 02:48:27;;;;;;;6.72;1.00;;;;;;;9.21;100.00;96443.72;4982200;28;20046;-79
2021/05/17 02:50:59;;;;;;;1.35;0.80;;;;;;;9.25;100.00;96447.31;4965252;28;20050;-77
2021/05/17 02:53:36;;;;;;;4.55;0.80;;;;;;;9.27;100.00;96458.56;4998146;28;20086;-76
2021/05/17 02:56:11;;;;;;;4.25;0.95;;;;;;;9.23;100.00;96450.38;4980883;28;20034;-79
2021/05/17 02:58:45;;;;;;;1.42;0.80;;;;;;;9.23;100.00;96453.06;4996656;28;20046;-78
2021/05/17 03:01:20;;;;;;;2.70;0.75;;;;;;;9.22;100.00;96454.16;4985439;28;20042;-79
2021/05/17 03:03:50;;;;;;;2.65;0.95;;;;;;;9.16;100.00;96460.91;4999692;28;20280;-78
2021/05/17 03:06:55;;;;;;;2.08;0.80;;;;;;;9.10;100.00;96462.25;4998208;28;20050;-76
2021/05/17 03:09:23;;;;;;;2.25;0.70;;;;;;;9.07;100.00;96454.03;5005925;28;20050;-78
2021/05/17 03:11:53;;;;;;;4.13;0.82;;;;;;;8.99;100.00;96455.69;5015584;28;20077;-78
2021/05/17 03:14:22;;;;;;;3.35;0.82;;;;;;;8.90;100.00;96454.19;5015475;28;20101;-76
2021/05/17 03:16:53;;;;;;;1.52;0.90;;;;;;;8.85;100.00;96457.13;4999286;28;20077;-77
2021/05/17 03:19:21;;;;;;;4.05;1.35;;;;;;;8.84;100.00;96453.63;4996178;28;20068;-77
2021/05/17 03:21:52;;;;;;;8.27;0.90;;;;;;;8.77;100.00;96464.94;4996833;28;20046;-76
2021/05/17 03:24:19;;;;;;;4.65;0.90;;;;;;;8.79;100.00;96461.91;5002961;28;20065;-78
2021/05/17 03:26:49;;;;;;;2.25;0.77;;;;;;;8.70;100.00;96466.59;5020373;28;20065;-79
2021/05/17 03:29:21;;;;;;;2.50;0.80;;;;;;;8.74;100.00;96460.22;5020337;28;20405;-76
2021/05/17 03:31:48;;;;;;;5.13;1.13;;;;;;;8.70;100.00;96453.09;5000569;28;20509;-78
2021/05/17 03:34:21;;;;;;;5.20;1.00;;;;;;;8.75;100.00;96461.78;5014381;28;20117;-77
2021/05/17 03:36:50;;;;;;;2.03;0.90;;;;;;;8.75;100.00;96466.38;4998448;28;20043;-77
2021/05/17 03:39:17;;;;;;;7.07;1.35;;;;;;;8.73;100.00;96471.34;5012844;28;20069;-75
2021/05/17 03:41:47;;;;;;;4.43;1.13;;;;;;;8.75;100.00;96472.56;5014701;28;20060;-76
2021/05/17 03:44:14;;;;;;;3.25;1.40;;;;;;;8.75;100.00;96477.97;5005268;28;20061;-77
2021/05/17 03:46:42;;;;;;;5.80;1.40;;;;;;;8.74;100.00;96473.72;5022866;28;20091;-77
2021/05/17 03:49:09;;;;;;;3.95;1.35;;;;;;;8.81;100.00;96478.56;5011353;28;20129;-77
2021/05/17 03:51:38;;;;;;;3.72;1.20;;;;;;;8.85;100.00;96479.50;4980883;28;20080;-79
2021/05/17 03:54:07;;;;;;;2.33;1.00;;;;;;;9.00;100.00;96486.19;5015843;28;20042;-78
2021/05/17 03:56:34;;;;;;;4.72;0.80;;;;;;;9.13;100.00;96474.28;4975811;28;20050;-78
2021/05/17 03:59:00;;;;;;;4.00;0.80;;;;;;;9.19;100.00;96484.53;4978645;28;20056;-78
2021/05/17 04:01:32;;;;;;;2.95;1.10;;;;;;;9.22;100.00;96481.16;4985835;28;20053;-77
2021/05/17 04:04:02;;;;;;;4.10;1.10;;;;;;;9.20;100.00;96469.13;4995845;28;20038;-78
2021/05/17 04:06:47;;;;;;;2.88;1.08;;;;;;;9.18;100.00;96468.69;4995370;28;20061;-76
2021/05/17 04:14:48;;;;;;;3.20;1.30;;;;;;;9.13;100.00;96474.28;5016184;28;20448;-78
2021/05/17 04:17:14;;;;;;;4.47;1.10;;;;;;;9.15;100.00;96474.75;5013931;28;20045;-79
2021/05/17 04:19:42;;;;;;;2.38;1.13;;;;;;;9.16;100.00;96481.72;5011497;28;20148;-78
2021/05/17 04:22:08;;;;;;;4.15;0.90;;;;;;;9.16;100.00;96477.09;5012544;28;20060;-79
2021/05/17 04:24:35;;;;;;;2.45;1.10;;;;;;;9.13;100.00;96477.00;5012001;28;20855;-80
2021/05/17 04:27:02;;;;;;;3.80;0.90;;;;;;;9.20;100.00;96488.03;4993165;28;20096;-78
2021/05/17 04:29:32;;;;;;;1.95;0.90;;;;;;;9.16;100.00;96487.91;5011623;28;20046;-78
2021/05/17 04:31:59;;;;;;;3.55;0.90;;;;;;;9.14;100.00;96489.34;5012467;28;20068;-80
2021/05/17 04:34:25;;;;;;;3.97;1.10;;;;;;;9.11;100.00;96487.34;4997295;28;20050;-77
2021/05/17 04:36:52;;;;;;;2.15;0.85;;;;;;;9.15;100.00;96497.13;4993753;28;20042;-79
2021/05/17 04:39:19;;;;;;;3.85;1.10;;;;;;;9.13;100.00;96498.59;4986829;28;610916;-78
2021/05/17 04:41:46;;;;;;;3.15;1.00;;;;;;;9.18;100.00;96492.97;5023783;28;20072;-77
2021/05/17 04:44:17;;;;;;;1.95;0.80;;;;;;;9.22;100.00;96491.19;5021747;28;20049;-77
2021/05/17 04:46:44;;;;;;;2.92;0.88;;;;;;;9.25;100.00;96501.31;4997664;28;20038;-78
2021/05/17 04:49:10;;;;;;;3.42;0.98;;;;;;;9.33;100.00;96493.13;4999826;28;20057;-78
2021/05/17 04:51:37;;;;;;;3.97;0.95;;;;;;;9.35;100.00;96506.28;5005875;28;20274;-76
2021/05/17 04:54:05;;;;;;;3.95;1.00;;;;;;;9.29;100.00;96505.72;4987195;28;20043;-77
2021/05/17 04:56:31;;;;;;;2.35;0.90;;;;;;;9.34;100.00;96507.44;5004617;28;20043;-77
2021/05/17 04:58:58;;;;;;;4.75;1.17;;;;;;;9.36;100.00;96510.59;5004801;28;20058;-76
2021/05/17 05:01:24;;;;;;;2.67;1.00;;;;;;;9.49;100.00;96523.00;5006624;28;20053;-78
2021/05/17 05:03:53;;;;;;;2.47;0.90;;;;;;;9.67;100.00;96518.97;4993671;28;20332;-76
2021/05/17 05:06:20;;;;;;;2.45;0.95;;;;;;;9.72;100.00;96501.75;5003578;28;20192;-77
2021/05/17 05:08:46;;;;;;;3.90;0.88;;;;;;;9.86;100.00;96518.41;5004578;28;20043;-76
2021/05/17 05:11:13;;;;;;;3.08;0.80;;;;;;;9.93;100.00;96514.03;5001372;28;20046;-76
2021/05/17 05:13:40;;;;;;;2.28;1.10;;;;;;;9.98;100.00;96521.94;4998840;28;20097;-78
2021/05/17 05:16:09;;;;;;;5.03;1.20;;;;;;;10.03;100.00;96532.53;4965761;28;20047;-78
2021/05/17 05:18:35;;;;;;;2.28;0.70;;;;;;;10.08;100.00;96536.91;4986254;28;20089;-78
2021/05/17 05:21:03;;;;;;;6.45;1.00;;;;;;;10.16;100.00;96541.44;5007542;28;20054;-77
2021/05/17 05:23:29;;;;;;;2.30;1.08;;;;;;;10.21;100.00;96530.41;5006477;28;20054;-76
2021/05/17 05:29:17;;;;;;;2.13;0.85;;;;;;;10.23;100.00;96546.28;5000934;28;20054;-76
2021/05/17 05:33:47;;;;;;;2.67;0.80;;;;;;;10.36;100.00;96528.91;5001845;28;20058;-76
2021/05/17 05:36:14;;;;;;;2.03;1.00;;;;;;;10.48;100.00;96537.78;4990966;28;20039;-77
2021/05/17 05:38:41;;;;;;;4.45;1.20;;;;;;;10.54;100.00;96532.94;5009314;28;20046;-77
2021/05/17 05:41:07;;;;;;;2.60;1.00;;;;;;;10.58;100.00;96533.84;4991068;28;20686;-78
2021/05/17 05:43:34;;;;;;;2.80;1.13;;;;;;;10.65;100.00;96542.19;5004948;28;20057;-79
2021/05/17 05:46:01;;;;;;;3.75;0.95;;;;;;;10.71;100.00;96542.72;5002109;28;20057;-79
2021/05/17 05:48:29;;;;;;;2.85;0.93;;;;;;;10.78;100.00;96537.53;5004454;28;20038;-80
2021/05/17 05:50:55;;;;;;;10.68;1.10;;;;;;;10.93;100.00;96551.13;5003915;28;20060;-77
2021/05/17 05:53:25;;;;;;;4.10;1.35;;;;;;;10.85;100.00;96538.50;5002379;28;20042;-78
2021/05/17 05:55:53;;;;;;;4.72;1.08;;;;;;;10.95;100.00;96545.34;5020745;28;20068;-78
2021/05/17 05:58:23;;;;;;;1.88;0.80;;;;;;;11.01;100.00;96541.28;5018677;28;20038;-80
2021/05/17 06:00:50;;;;;;;3.25;0.93;;;;;;;10.99;100.00;96530.00;4993638;28;20065;-76
2021/05/17 06:03:17;;;;;;;2.05;0.95;;;;;;;11.18;100.00;96549.09;5009797;28;20056;-76
2021/05/17 06:05:43;;;;;;;2.78;0.82;;;;;;;11.27;100.00;96539.72;5031192;28;20061;-77
2021/05/17 06:08:10;;;;;;;2.60;0.70;;;;;;;11.34;100.00;96536.41;4994542;28;20098;-78
2021/05/17 06:10:37;;;;;;;2.13;0.90;;;;;;;11.30;100.00;96519.28;4986477;28;20046;-78
2021/05/17 06:13:04;;;;;;;2.10;0.80;;;;;;;11.40;100.00;96526.91;5004545;28;20050;-79
2021/05/17 06:15:33;;;;;;;2.63;1.00;;;;;;;11.45;100.00;96536.69;5020494;28;20046;-79
2021/05/17 06:18:03;;;;;;;1.80;0.73;;;;;;;11.57;100.00;96533.91;5003639;28;20038;-79
2021/05/17 06:20:37;;;;;;;0.80;0.50;;;;;;;11.56;100.00;96543.94;5020189;28;20504;-79
2021/05/17 06:23:27;;;;;;;0.98;0.57;;;;;;;11.59;100.00;96540.56;5021503;28;20053;-81
2021/05/17 06:25:56;;;;;;;1.23;0.70;;;;;;;11.57;100.00;96550.97;5001735;28;20050;-80
2021/05/17 06:28:26;;;;;;;1.77;0.73;;;;;;;11.75;100.00;96546.03;5018308;28;20044;-81
2021/05/17 06:30:58;;;;;;;1.85;0.70;;;;;;;11.63;100.00;96554.22;5020004;28;20119;-80
2021/05/17 06:33:30;;;;;;;2.05;0.75;;;;;;;11.72;100.00;96557.56;5013267;28;20105;-79
2021/05/17 06:35:58;;;;;;;2.63;1.15;;;;;;;11.86;100.00;96571.50;5018487;28;20061;-81
2021/05/17 06:38:26;;;;;;;3.00;0.80;;;;;;;11.88;100.00;96564.59;5003446;28;20057;-80
2021/05/17 06:40:54;;;;;;;1.55;0.52;;;;;;;12.08;100.00;96567.41;5001040;28;20137;-81
2021/05/17 06:43:21;;;;;;;3.67;0.75;;;;;;;12.31;100.00;96560.22;5015401;28;20136;-81
2021/05/17 06:45:50;;;;;;;2.10;0.75;;;;;;;12.65;100.00;96566.78;5016009;28;20042;-80
2021/05/17 06:48:23;;;;;;;1.30;0.55;;;;;;;12.58;100.00;96562.00;5016219;28;20418;-80
2021/05/17 06:50:50;;;;;;;2.28;0.60;;;;;;;12.52;100.00;96554.50;4998930;28;20051;-81
2021/05/17 06:53:17;;;;;;;2.25;0.90;;;;;;;12.95;100.00;96555.06;4998229;28;20050;-80
2021/05/17 06:55:59;;;;;;;5.07;0.80;;;;;;;12.53;100.00;96546.00;5015228;28;20042;-80
2021/05/17 06:58:44;;;;;;;4.43;0.80;;;;;;;12.44;100.00;96548.88;4980917;28;20050;-80
2021/05/17 07:01:11;;;;;;;2.15;0.70;;;;;;;12.38;100.00;96544.09;4966991;28;20489;-81
2021/05/17 07:03:38;;;;;;;4.07;1.00;;;;;;;12.20;100.00;96548.31;4995752;28;20050;-79
2021/05/17 07:06:06;;;;;;;1.40;0.60;;;;;;;12.30;100.00;96547.78;4963786;28;20047;-81
2021/05/17 07:11:33;;;;;;;4.13;0.90;;;;;;;12.27;100.00;96530.28;5015106;28;20077;-80
2021/05/17 07:14:00;;;;;;;2.78;0.75;;;;;;;12.49;100.00;96531.56;5002085;28;20045;-79
2021/05/17 07:16:28;;;;;;;1.45;0.50;;;;;;;12.48;100.00;96525.34;5015622;28;20037;-80
2021/05/17 07:18:56;;;;;;;2.53;0.70;;;;;;;12.69;100.00;96537.81;4998509;28;20046;-78
2021/05/17 07:24:27;;;;;;;2.53;0.70;;;;;;;12.76;100.00;96524.38;5024115;28;20045;-79
2021/05/17 07:26:56;;;;;;;2.45;0.80;;;;;;;12.77;100.00;96539.53;4997058;28;20042;-82
2021/05/17 07:29:35;;;;;;;3.17;0.55;;;;;;;12.77;100.00;96542.25;4986277;28;20401;-82
2021/05/17 07:32:08;;;;;;;1.95;0.60;;;;;;;12.88;100.00;96538.59;4976882;28;20042;-81
2021/05/17 07:34:37;;;;;;;3.42;0.70;;;;;;;13.28;100.00;96534.78;4982509;28;20048;-80
2021/05/17 07:37:05;;;;;;;1.65;0.70;;;;;;;13.42;100.00;96541.28;4995860;28;20062;-80
2021/05/17 07:39:33;;;;;;;3.20;0.50;;;;;;;13.28;100.00;96529.34;4994364;28;20082;-81
2021/05/17 07:42:01;;;;;;;0.98;0.50;;;;;;;13.30;100.00;96544.16;4975984;28;20149;-80
2021/05/17 07:44:29;;;;;;;3.28;0.73;;;;;;;13.49;100.00;96535.19;4993065;28;20046;-80
2021/05/17 07:46:58;;;;;;;1.23;0.60;;;;;;;13.55;100.00;96526.38;4993764;28;20057;-79
2021/05/17 07:49:36;;;;;;;2.25;0.60;;;;;;;14.00;100.00;96524.84;4995990;28;20077;-78
2021/05/17 07:52:04;;;;;;;3.80;0.60;;;;;;;14.31;100.00;96539.00;4998301;28;20391;-80
2021/05/17 07:54:31;;;;;;;2.47;0.70;;;;;;;14.24;100.00;96538.84;4977809;28;20062;-80
2021/05/17 07:56:58;;;;;;;2.15;0.75;;;;;;;13.97;100.00;96541.88;4978206;28;20043;-80
2021/05/17 07:59:29;;;;;;;1.45;0.55;;;;;;;13.50;100.00;96547.63;4993381;28;20042;-79
2021/05/17 08:02:00;;;;;;;2.78;0.47;;;;;;;13.15;100.00;96549.66;4997175;28;20425;-78
2021/05/17 08:04:29;;;;;;;2.33;0.60;;;;;;;12.87;100.00;96544.41;4985582;28;20073;-80
2021/05/17 08:06:56;;;;;;;4.72;0.90;;;;;;;12.80;100.00;96553.16;4998207;28;20038;-79
2021/05/17 08:09:23;;;;;;;2.85;0.70;;;;;;;12.85;100.00;96552.13;4978585;28;20077;-80
2021/05/17 08:11:51;;;;;;;3.50;0.90;;;;;;;12.58;100.00;96548.44;4968285;28;20560;-79
2021/05/17 08:14:19;;;;;;;1.73;0.60;;;;;;;12.75;100.00;96539.13;4997995;28;20077;-79
2021/05/17 08:16:46;;;;;;;3.25;1.23;;;;;;;13.34;100.00;96541.53;5014547;28;20057;-78
2021/05/17 08:19:16;;;;;;;5.85;0.77;;;;;;;13.70;100.00;96546.47;5016872;28;20499;-79
2021/05/17 08:21:46;;;;;;;3.95;0.88;;;;;;;13.86;100.00;96532.78;5014407;28;20096;-79
2021/05/17 08:24:13;;;;;;;4.18;1.05;;;;;;;14.10;100.00;96546.78;5015452;28;20049;-79
2021/05/17 08:26:41;;;;;;;1.52;0.70;;;;;;;14.17;100.00;96541.44;4997015;28;20129;-78
2021/05/17 08:29:08;;;;;;;2.97;0.60;;;;;;;14.52;100.00;96543.19;4986240;28;20050;-78
2021/05/17 08:31:38;;;;;;;3.10;0.65;;;;;;;14.35;100.00;96563.53;5004102;28;20512;-80
2021/05/17 08:34:05;;;;;;;2.08;0.80;;;;;;;14.18;100.00;96550.41;5016858;28;20045;-79
2021/05/17 08:36:34;;;;;;;3.88;0.80;;;;;;;14.28;100.00;96557.94;4996433;28;20246;-80
2021/05/17 08:39:03;;;;;;;2.42;0.80;;;;;;;14.39;100.00;96558.94;5011702;28;20038;-78
2021/05/17 08:41:35;;;;;;;4.43;0.60;;;;;;;14.93;100.00;96561.28;5013181;28;20321;-79
2021/05/17 08:44:07;;;;;;;4.00;0.45;;;;;;;15.33;100.00;96560.66;5000576;28;20065;-80
2021/05/17 08:46:34;;;;;;;3.08;0.50;;;;;;;15.13;100.00;96551.81;4998990;28;20105;-80
2021/05/17 08:49:01;;;;;;;5.13;0.73;;;;;;;14.86;100.00;96563.94;5000618;28;20417;-80
2021/05/17 08:51:31;;;;;;;7.25;0.70;;;;;;;14.75;100.00;96562.97;4998716;28;20595;-80
2021/05/17 08:54:02;;;;;;;1.92;0.65;;;;;;;14.49;100.00;96558.31;5004242;28;20088;-80
2021/05/17 08:56:32;;;;;;;2.92;0.45;;;;;;;14.62;100.00;96569.78;5006637;28;20065;-78
2021/05/17 08:59:02;;;;;;;2.47;0.45;;;;;;;14.98;100.00;96556.31;5022145;28;20041;-80
2021/05/17 09:01:30;;;;;;;1.55;0.57;;;;;;;14.87;100.00;96555.38;5019797;28;20054;-80
2021/05/17 09:04:07;;;;;;;4.97;0.73;;;;;;;14.62;100.00;96564.34;5018641;28;20053;-79
2021/05/17 09:06:48;;;;;;;2.35;0.55;;;;;;;14.78;100.00;96560.31;5003520;28;20050;-80
2021/05/17 09:09:32;;;;;;;2.45;0.68;;;;;;;15.36;100.00;96574.31;4971867;28;20043;-80
2021/05/17 09:12:05;;;;;;;3.30;0.70;;;;;;;15.08;100.00;96543.97;4995620;28;20054;-80
2021/05/17 09:14:34;;;;;;;3.55;0.55;;;;;;;15.40;100.00;96549.81;5026016;28;20054;-79
2021/05/17 09:17:11;;;;;;;1.27;0.50;;;;;;;15.43;100.00;96560.00;4965751;28;20061;-80
2021/05/17 09:19:41;;;;;;;1.05;0.50;;;;;;;15.72;100.00;96550.97;4981523;28;20406;-80
2021/05/17 09:22:38;;;;;;;3.20;0.50;;;;;;;15.42;100.00;96566.59;4983331;28;20149;-80
2021/05/17 09:25:06;;;;;;;2.85;0.55;;;;;;;15.10;100.00;96552.56;4997229;28;20054;-81
2021/05/17 09:27:33;;;;;;;2.60;0.50;;;;;;;14.79;100.00;96578.22;4982276;28;20050;-82
2021/05/17 09:30:04;;;;;;;3.92;0.70;;;;;;;14.38;100.00;96562.00;4996648;28;20049;-80
2021/05/17 09:32:37;;;;;;;2.63;0.63;;;;;;;14.24;100.00;96573.44;5019928;28;20066;-79
2021/05/17 09:35:09;;;;;;;3.78;1.05;;;;;;;14.08;100.00;96572.78;4994765;28;20038;-79
2021/05/17 09:37:49;;;;;;;2.05;0.60;;;;;;;15.14;100.00;96572.47;4993701;28;20058;-80
2021/05/17 09:40:27;;;;;;;2.78;0.90;;;;;;;16.18;100.00;96570.53;5012131;28;20038;-78
2021/05/17 09:43:08;;;;;;;1.85;0.55;;;;;;;16.79;100.00;96556.97;5019251;28;20042;-80
2021/05/17 09:45:44;;;;;;;4.32;0.70;;;;;;;17.62;100.00;96575.38;5008469;28;20046;-82
2021/05/17 09:48:14;;;;;;;2.55;0.77;;;;;;;18.39;94.50;96556.34;5008556;28;20148;-80
2021/05/17 09:51:08;;;;;;;3.75;0.63;;;;;;;18.99;92.94;96559.06;4989380;28;20050;-81
2021/05/17 09:53:43;;;;;;;2.90;0.80;;;;;;;19.59;100.00;96558.84;4991992;28;20058;-80
2021/05/17 09:56:23;;;;;;;3.93;0.70;;;;;;;19.21;90.29;96562.50;4986178;28;20080;-82
2021/05/17 09:59:00;;;;;;;2.65;0.60;;;;;;;19.61;100.00;96558.47;4989909;28;20043;-82
2021/05/17 10:01:29;;;;;;;2.70;0.75;;;;;;;19.04;80.33;96553.16;5006723;28;20127;-82
2021/05/17 10:04:04;;;;;;;3.15;0.63;;;;;;;17.14;100.00;96563.81;4996765;28;20046;-82
2021/05/17 10:06:32;;;;;;;2.38;0.60;;;;;;;16.87;100.00;96541.41;5009066;28;20049;-82
2021/05/17 10:09:00;;;;;;;2.13;0.60;;;;;;;18.18;97.19;96559.06;4991538;28;20042;-82
2021/05/17 10:11:30;;;;;;;2.63;0.80;;;;;;;19.25;77.58;96555.81;4977163;28;20552;-82
2021/05/17 10:14:01;;;;;;;2.88;0.90;;;;;;;16.33;100.00;96569.50;5005353;28;20120;-82
2021/05/17 10:16:29;;;;;;;4.50;0.90;;;;;;;15.95;100.00;96589.03;4999928;28;20045;-81
2021/05/17 10:19:00;;;;;;;2.55;0.88;;;;;;;15.41;100.00;96578.66;5009905;28;20101;-80
2021/05/17 10:21:27;;;;;;;5.00;0.73;;;;;;;14.24;100.00;96592.50;5005796;28;20524;-79
2021/05/17 10:23:54;;;;;;;0.80;0.40;;;;;;;13.72;100.00;96588.50;4986212;28;20052;-80
2021/05/17 10:26:24;;;;;;;6.28;1.20;;;;;;;13.58;100.00;96588.22;5007476;28;20052;-80
2021/05/17 10:29:05;;;;;;;3.00;0.80;;;;;;;13.49;100.00;96581.44;4982355;28;20042;-79
2021/05/17 10:31:34;;;;;;;1.75;0.55;;;;;;;13.95;100.00;96587.72;5002189;28;20049;-79
2021/05/17 10:34:05;;;;;;;4.43;0.80;;;;;;;14.14;100.00;96574.81;5006223;28;20568;-80
2021/05/17 10:36:56;;;;;;;2.15;0.40;;;;;;;14.84;100.00;96582.59;5006251;28;20072;-80
2021/05/17 10:39:37;;;;;;;6.53;0.60;;;;;;;15.27;100.00;96578.47;5008519;28;20254;-83
2021/05/17 10:47:49;;;;;;;2.83;0.57;;;;;;;19.70;69.72;96573.31;4987062;28;20116;-82
2021/05/17 10:50:24;;;;;;;3.28;0.80;;;;;;;20.26;72.26;96561.22;4984756;28;20096;-82
2021/05/17 10:52:51;;;;;;;3.40;0.90;;;;;;;20.26;57.67;96561.22;5005621;28;20049;-83
2021/05/17 10:55:24;;;;;;;2.83;0.80;;;;;;;20.37;58.50;96553.69;5010059;28;20049;-80
2021/05/17 11:00:21;;;;;;;1.65;0.60;;;;;;;21.09;53.89;96555.41;5003239;28;20512;-82
2021/05/17 11:00:46;;;;;;;3.15;0.70;;;;;;;21.73;54.79;96560.19;4983920;28;20049;-82
2021/05/17 11:03:21;;;;;;;1.30;0.50;;;;;;;20.91;61.81;96562.25;5001718;28;20076;-78
2021/05/17 11:05:53;;;;;;;3.05;0.77;;;;;;;19.81;73.58;96573.28;5017990;28;20038;-80
2021/05/17 11:08:24;;;;;;;2.63;0.73;;;;;;;20.83;68.86;96580.00;5002234;28;20065;-81
2021/05/17 11:10:52;;;;;;;2.45;0.50;;;;;;;19.63;68.34;96572.56;4979413;28;20050;-79
2021/05/17 11:13:28;;;;;;;1.25;0.45;;;;;;;18.15;97.05;96579.03;4984525;28;20050;-80
2021/05/17 11:16:08;;;;;;;;;;;;;;;18.46;98.34;96588.44;5017188;28;20046;-81
2021/05/17 11:18:43;;;;;;;3.65;0.68;;;;;;;18.47;100.00;96584.56;4996871;28;20019;-81
2021/05/17 11:21:13;;;;;;;1.90;0.55;;;;;;;18.59;100.00;96584.16;5016041;28;20096;-79
2021/05/17 11:23:45;;;;;;;1.58;0.55;;;;;;;18.48;100.00;96577.88;4996312;28;20053;-80
2021/05/17 11:26:18;;;;;;;1.63;0.57;;;;;;;17.54;100.00;96579.25;4989511;28;20042;-80
2021/05/17 11:28:48;;;;;;;1.83;0.70;;;;;;;17.36;100.00;96587.38;4979334;28;20126;-82
2021/05/17 11:34:01;;;;;;;2.10;0.70;;;;;;;17.94;100.00;96590.72;4996366;28;20038;-80
2021/05/17 11:36:46;;;;;;;2.88;0.60;;;;;;;18.38;100.00;96593.13;4978403;28;20065;-80
2021/05/17 11:39:31;;;;;;;1.80;0.52;;;;;;;19.34;70.12;96588.34;4995081;28;20474;-82
2021/05/17 11:41:58;;;;;;;1.67;0.50;;;;;;;18.11;74.50;96594.69;4976366;28;20043;-81
2021/05/17 11:45:12;;;;;;;2.20;0.40;;;;;;;16.99;97.45;96609.44;4977086;28;20056;-81
2021/05/17 11:47:39;;;;;;;2.25;0.52;;;;;;;16.54;100.00;96591.53;4960348;28;20054;-80
2021/05/17 11:50:08;;;;;;;1.63;0.40;;;;;;;16.80;100.00;96606.97;4994206;28;20136;-81
2021/05/17 11:52:36;;;;;;;1.25;0.50;;;;;;;16.09;100.00;96587.22;4975629;28;20069;-78
2021/05/17 11:55:07;;;;;;;1.88;0.52;;;;;;;15.88;100.00;96597.13;4987653;28;20105;-78
2021/05/17 11:57:40;;;;;;;2.42;0.65;;;;;;;16.31;100.00;96596.38;4975520;28;20062;-77
2021/05/17 12:00:13;;;;;;;2.72;0.52;;;;;;;18.61;100.00;96606.47;4996698;28;20047;-79
2021/05/17 12:02:47;;;;;;;2.17;0.68;;;;;;;18.78;78.44;96596.69;5012687;28;20046;-80
2021/05/17 12:05:15;;;;;;;1.42;0.55;;;;;;;17.18;100.00;96598.22;5013006;28;20107;-79
2021/05/17 12:07:52;;;;;;;2.13;0.68;;;;;;;16.57;100.00;96609.13;5014748;28;20057;-79